FIN2EG EHAM-EFHK
Flight info
| Callsign | FIN2EG |
|---|---|
| Flight time | 1h 27m |
| Altitude | 41000 |
| Route | ANDIK N873 JUIST DCT DOSUR DCT RASMU DCT ROGMI DCT ALAMI DCT OKEVU DCT EVADI Y370 DIVAM |
| Aircraft | A359/H-SDE2E3GHIJ3J4J5LM1ORWXY/LB1D1 |
Departure
| Time | 2026-05-07 18:00 |
|---|---|
| Airport | Amsterdam Airport Schiphol (EHAM) |
Arrival
| Time | 2026-05-07 19:28 |
|---|---|
| Airport | Helsinki Vantaa Airport (EFHK) |
| Time | Latitude | Longitude | Altitude | Speed | Heading |
|---|---|---|---|---|---|
| 2026-05-07 17:54 | 52.31485 | 4.74734 | 5 ft | 1 kts | 280° |
| 2026-05-07 17:54 | 52.31485 | 4.74722 | 5 ft | 0 kts | 274° |
| 2026-05-07 17:55 | 52.31485 | 4.74670 | 5 ft | 10 kts | 268° |
| 2026-05-07 17:55 | 52.31481 | 4.74569 | 5 ft | 8 kts | 266° |
| 2026-05-07 17:55 | 52.31479 | 4.74486 | 5 ft | 7 kts | 267° |
| 2026-05-07 17:55 | 52.31477 | 4.74415 | 5 ft | 6 kts | 267° |
| 2026-05-07 17:56 | 52.31474 | 4.74344 | 5 ft | 7 kts | 267° |
| 2026-05-07 17:56 | 52.31468 | 4.74256 | 5 ft | 9 kts | 256° |
| 2026-05-07 17:56 | 52.31431 | 4.74165 | 5 ft | 11 kts | 217° |
| 2026-05-07 17:56 | 52.31347 | 4.74134 | 5 ft | 14 kts | 184° |
| 2026-05-07 17:57 | 52.31237 | 4.74124 | 5 ft | 17 kts | 184° |
| 2026-05-07 17:57 | 52.31154 | 4.74116 | 5 ft | 19 kts | 184° |
| 2026-05-07 17:57 | 52.30965 | 4.74099 | 5 ft | 22 kts | 183° |
| 2026-05-07 17:57 | 52.30815 | 4.74085 | 5 ft | 21 kts | 183° |
| 2026-05-07 17:58 | 52.30663 | 4.74072 | 5 ft | 22 kts | 183° |
| 2026-05-07 17:58 | 52.30518 | 4.74059 | 5 ft | 20 kts | 183° |
| 2026-05-07 17:58 | 52.30395 | 4.74047 | 5 ft | 18 kts | 188° |
| 2026-05-07 17:58 | 52.30279 | 4.73965 | 5 ft | 18 kts | 213° |
| 2026-05-07 17:59 | 52.30192 | 4.73841 | 5 ft | 16 kts | 264° |
| 2026-05-07 17:59 | 52.30273 | 4.73746 | 2 ft | 17 kts | 358° |
| 2026-05-07 17:59 | 52.30392 | 4.73755 | 3 ft | 18 kts | 5° |
| 2026-05-07 17:59 | 52.30522 | 4.73769 | 3 ft | 21 kts | 3° |
| 2026-05-07 18:00 | 52.30772 | 4.73791 | 6 ft | 63 kts | 2° |
| 2026-05-07 18:00 | 52.31463 | 4.73854 | 3 ft | 133 kts | 4° |
| 2026-05-07 18:00 | 52.32537 | 4.73937 | 373 ft | 160 kts | 5° |
| 2026-05-07 18:00 | 52.33623 | 4.74028 | 1294 ft | 154 kts | 7° |
| 2026-05-07 18:01 | 52.34680 | 4.74510 | 1887 ft | 172 kts | 26° |
| 2026-05-07 18:01 | 52.35853 | 4.75410 | 2256 ft | 202 kts | 27° |
| 2026-05-07 18:01 | 52.37234 | 4.76438 | 2617 ft | 232 kts | 28° |
| 2026-05-07 18:01 | 52.38568 | 4.78038 | 3274 ft | 244 kts | 45° |
| 2026-05-07 18:02 | 52.41036 | 4.82183 | 4837 ft | 263 kts | 47° |
| 2026-05-07 18:02 | 52.42351 | 4.84340 | 5644 ft | 272 kts | 43° |
| 2026-05-07 18:02 | 52.43990 | 4.85915 | 6522 ft | 277 kts | 17° |
| 2026-05-07 18:03 | 52.45912 | 4.86238 | 7443 ft | 280 kts | 357° |
| 2026-05-07 18:03 | 52.47873 | 4.86064 | 8409 ft | 283 kts | 355° |
| 2026-05-07 18:03 | 52.49842 | 4.85838 | 9504 ft | 283 kts | 355° |
| 2026-05-07 18:03 | 52.51816 | 4.85674 | 10473 ft | 289 kts | 359° |
| 2026-05-07 18:04 | 52.53849 | 4.86300 | 10912 ft | 313 kts | 22° |
| 2026-05-07 18:04 | 52.55731 | 4.88326 | 11352 ft | 334 kts | 37° |
| 2026-05-07 18:04 | 52.57482 | 4.90935 | 12050 ft | 345 kts | 45° |
| 2026-05-07 18:04 | 52.59161 | 4.93842 | 12832 ft | 353 kts | 47° |
| 2026-05-07 18:05 | 52.60779 | 4.96929 | 13717 ft | 358 kts | 50° |
| 2026-05-07 18:05 | 52.62336 | 5.00107 | 14428 ft | 365 kts | 51° |
| 2026-05-07 18:05 | 52.63910 | 5.03445 | 15208 ft | 369 kts | 52° |
| 2026-05-07 18:05 | 52.65474 | 5.06816 | 16018 ft | 373 kts | 52° |
| 2026-05-07 18:06 | 52.67058 | 5.10240 | 16792 ft | 378 kts | 53° |
| 2026-05-07 18:06 | 52.68653 | 5.13680 | 17648 ft | 381 kts | 52° |
| 2026-05-07 18:06 | 52.70284 | 5.17186 | 18441 ft | 386 kts | 52° |
| 2026-05-07 18:06 | 52.71929 | 5.20715 | 19205 ft | 390 kts | 52° |
| 2026-05-07 18:07 | 52.73595 | 5.24281 | 19881 ft | 396 kts | 52° |
| 2026-05-07 18:07 | 52.75277 | 5.27886 | 20635 ft | 399 kts | 52° |
| 2026-05-07 18:07 | 52.76978 | 5.31534 | 21340 ft | 404 kts | 52° |
| 2026-05-07 18:07 | 52.78705 | 5.35241 | 22081 ft | 407 kts | 52° |
| 2026-05-07 18:08 | 52.79845 | 5.37694 | 22568 ft | 409 kts | 52° |
| 2026-05-07 18:08 | 52.81595 | 5.41463 | 23217 ft | 415 kts | 52° |
| 2026-05-07 18:08 | 52.83942 | 5.46526 | 24077 ft | 420 kts | 53° |
| 2026-05-07 18:08 | 52.85147 | 5.49129 | 24451 ft | 423 kts | 53° |
| 2026-05-07 18:09 | 52.87524 | 5.54275 | 25291 ft | 426 kts | 53° |
| 2026-05-07 18:09 | 52.88743 | 5.56915 | 25688 ft | 428 kts | 53° |
| 2026-05-07 18:09 | 52.90529 | 5.60790 | 26436 ft | 428 kts | 53° |
| 2026-05-07 18:09 | 52.92340 | 5.64727 | 27006 ft | 431 kts | 53° |
| 2026-05-07 18:10 | 52.94164 | 5.68700 | 27585 ft | 435 kts | 53° |
| 2026-05-07 18:10 | 52.96004 | 5.72715 | 28136 ft | 438 kts | 53° |
| 2026-05-07 18:10 | 52.97851 | 5.76752 | 28714 ft | 441 kts | 53° |
| 2026-05-07 18:10 | 52.99715 | 5.80832 | 29258 ft | 445 kts | 54° |
| 2026-05-07 18:11 | 53.01594 | 5.84951 | 29801 ft | 448 kts | 53° |
| 2026-05-07 18:11 | 53.03479 | 5.89087 | 30290 ft | 451 kts | 54° |
| 2026-05-07 18:11 | 53.05382 | 5.93271 | 30710 ft | 454 kts | 54° |
| 2026-05-07 18:11 | 53.07287 | 5.97468 | 31114 ft | 458 kts | 54° |
| 2026-05-07 18:12 | 53.09185 | 6.01654 | 31521 ft | 460 kts | 54° |
| 2026-05-07 18:12 | 53.11114 | 6.05917 | 32027 ft | 461 kts | 54° |
| 2026-05-07 18:12 | 53.13037 | 6.10172 | 32706 ft | 457 kts | 54° |
| 2026-05-07 18:12 | 53.14952 | 6.14415 | 33050 ft | 461 kts | 54° |
| 2026-05-07 18:13 | 53.16894 | 6.18730 | 33283 ft | 466 kts | 54° |
| 2026-05-07 18:13 | 53.18839 | 6.23056 | 33650 ft | 468 kts | 54° |
| 2026-05-07 18:13 | 53.22334 | 6.30851 | 34197 ft | 473 kts | 54° |
| 2026-05-07 18:13 | 53.26299 | 6.39722 | 34679 ft | 479 kts | 54° |
| 2026-05-07 18:14 | 53.29835 | 6.47656 | 35172 ft | 482 kts | 54° |
| 2026-05-07 18:14 | 53.31842 | 6.52171 | 35420 ft | 484 kts | 54° |
| 2026-05-07 18:14 | 53.34715 | 6.58261 | 35773 ft | 487 kts | 49° |
| 2026-05-07 18:14 | 53.39578 | 6.66255 | 36306 ft | 491 kts | 44° |
| 2026-05-07 18:15 | 53.42487 | 6.70773 | 36549 ft | 493 kts | 43° |
| 2026-05-07 18:15 | 53.45021 | 6.74659 | 36830 ft | 494 kts | 43° |
| 2026-05-07 18:15 | 53.47577 | 6.78572 | 37100 ft | 496 kts | 43° |
| 2026-05-07 18:15 | 53.50120 | 6.82474 | 37402 ft | 496 kts | 43° |
| 2026-05-07 18:16 | 53.54944 | 6.89910 | 37936 ft | 497 kts | 43° |
| 2026-05-07 18:16 | 53.59976 | 6.97905 | 38467 ft | 498 kts | 45° |
| 2026-05-07 18:16 | 53.64864 | 7.06221 | 38913 ft | 499 kts | 45° |
| 2026-05-07 18:16 | 53.69728 | 7.14560 | 39325 ft | 499 kts | 45° |
| 2026-05-07 18:17 | 53.74634 | 7.22913 | 39689 ft | 500 kts | 45° |
| 2026-05-07 18:17 | 53.79540 | 7.31249 | 40077 ft | 500 kts | 45° |
| 2026-05-07 18:17 | 53.84456 | 7.39620 | 40432 ft | 500 kts | 45° |
| 2026-05-07 18:17 | 53.89364 | 7.48011 | 40740 ft | 501 kts | 45° |
| 2026-05-07 18:18 | 53.94216 | 7.56339 | 41061 ft | 502 kts | 45° |
| 2026-05-07 18:18 | 54.04091 | 7.73378 | 41113 ft | 511 kts | 45° |
| 2026-05-07 18:19 | 54.14150 | 7.90861 | 41111 ft | 518 kts | 45° |
| 2026-05-07 18:19 | 54.24230 | 8.08513 | 41115 ft | 518 kts | 45° |
| 2026-05-07 18:20 | 54.34265 | 8.26216 | 41109 ft | 518 kts | 46° |
| 2026-05-07 18:20 | 54.44271 | 8.44000 | 41109 ft | 518 kts | 46° |
| 2026-05-07 18:21 | 54.54256 | 8.61882 | 41103 ft | 517 kts | 46° |
| 2026-05-07 18:21 | 54.62388 | 8.76545 | 41115 ft | 518 kts | 46° |
| 2026-05-07 18:22 | 54.67365 | 8.85564 | 41118 ft | 518 kts | 46° |
| 2026-05-07 18:22 | 54.72328 | 8.94592 | 41112 ft | 517 kts | 46° |
| 2026-05-07 18:23 | 54.81080 | 9.10596 | 41117 ft | 517 kts | 46° |
| 2026-05-07 18:23 | 54.90370 | 9.29362 | 41112 ft | 517 kts | 52° |
| 2026-05-07 18:24 | 54.99230 | 9.49180 | 41126 ft | 518 kts | 52° |
| 2026-05-07 18:24 | 55.08055 | 9.69086 | 41130 ft | 518 kts | 52° |
| 2026-05-07 18:25 | 55.16866 | 9.89099 | 41131 ft | 518 kts | 52° |
| 2026-05-07 18:25 | 55.25619 | 10.09143 | 41131 ft | 518 kts | 52° |
| 2026-05-07 18:26 | 55.34286 | 10.29152 | 41129 ft | 518 kts | 52° |
| 2026-05-07 18:26 | 55.42961 | 10.49347 | 41129 ft | 518 kts | 53° |
| 2026-05-07 18:27 | 55.51622 | 10.69672 | 41128 ft | 518 kts | 53° |
| 2026-05-07 18:27 | 55.60262 | 10.90120 | 41132 ft | 518 kts | 53° |
| 2026-05-07 18:28 | 55.68843 | 11.10598 | 41131 ft | 518 kts | 53° |
| 2026-05-07 18:28 | 55.77396 | 11.31181 | 41123 ft | 518 kts | 53° |
| 2026-05-07 18:29 | 55.85874 | 11.51756 | 41133 ft | 519 kts | 53° |
| 2026-05-07 18:29 | 55.94374 | 11.72561 | 41138 ft | 519 kts | 54° |
| 2026-05-07 18:30 | 56.02851 | 11.93485 | 41142 ft | 519 kts | 54° |
| 2026-05-07 18:30 | 56.06682 | 12.03001 | 40042 ft | 519 kts | 54° |
| 2026-05-07 18:30 | 56.08788 | 12.08247 | 41241 ft | 517 kts | 54° |
| 2026-05-07 18:30 | 56.10883 | 12.13479 | 41140 ft | 518 kts | 54° |
| 2026-05-07 18:31 | 56.14467 | 12.22453 | 41136 ft | 519 kts | 54° |
| 2026-05-07 18:31 | 56.31225 | 12.64861 | 41130 ft | 520 kts | 54° |
| 2026-05-07 18:32 | 56.47748 | 13.07407 | 41135 ft | 521 kts | 54° |
| 2026-05-07 18:32 | 56.56125 | 13.29266 | 41130 ft | 521 kts | 55° |
| 2026-05-07 18:33 | 56.60249 | 13.40099 | 41129 ft | 521 kts | 55° |
| 2026-05-07 18:33 | 56.64360 | 13.50946 | 41119 ft | 521 kts | 55° |
| 2026-05-07 18:34 | 56.74089 | 13.76815 | 41114 ft | 522 kts | 55° |
| 2026-05-07 18:34 | 56.90397 | 14.20773 | 41098 ft | 523 kts | 55° |
| 2026-05-07 18:35 | 57.01214 | 14.50375 | 41095 ft | 524 kts | 56° |
| 2026-05-07 18:35 | 57.05249 | 14.61508 | 41102 ft | 524 kts | 56° |
| 2026-05-07 18:36 | 57.09281 | 14.72687 | 41102 ft | 524 kts | 56° |
| 2026-05-07 18:36 | 57.13276 | 14.83814 | 41111 ft | 524 kts | 56° |
| 2026-05-07 18:37 | 57.17279 | 14.95017 | 41111 ft | 524 kts | 56° |
| 2026-05-07 18:37 | 57.21284 | 15.06277 | 41111 ft | 525 kts | 56° |
| 2026-05-07 18:38 | 57.25286 | 15.17582 | 41120 ft | 526 kts | 56° |
| 2026-05-07 18:38 | 57.29259 | 15.28857 | 41123 ft | 526 kts | 56° |
| 2026-05-07 18:39 | 57.33250 | 15.40237 | 41128 ft | 526 kts | 56° |
| 2026-05-07 18:39 | 57.37222 | 15.51619 | 41132 ft | 526 kts | 56° |
| 2026-05-07 18:40 | 57.41184 | 15.63023 | 41137 ft | 526 kts | 57° |
| 2026-05-07 18:40 | 57.45139 | 15.74462 | 41137 ft | 526 kts | 57° |
| 2026-05-07 18:41 | 57.49082 | 15.85922 | 41154 ft | 528 kts | 57° |
| 2026-05-07 18:41 | 57.53038 | 15.97475 | 41146 ft | 529 kts | 57° |
| 2026-05-07 18:42 | 57.56957 | 16.08975 | 41153 ft | 529 kts | 57° |
| 2026-05-07 18:42 | 57.60892 | 16.20578 | 41154 ft | 529 kts | 57° |
| 2026-05-07 18:43 | 57.64815 | 16.32202 | 41152 ft | 529 kts | 57° |
| 2026-05-07 18:43 | 57.68732 | 16.43865 | 41156 ft | 529 kts | 57° |
| 2026-05-07 18:44 | 57.72605 | 16.55455 | 41155 ft | 529 kts | 57° |
| 2026-05-07 18:44 | 57.76499 | 16.67164 | 41157 ft | 530 kts | 58° |
| 2026-05-07 18:45 | 57.80389 | 16.78917 | 41162 ft | 531 kts | 58° |
| 2026-05-07 18:45 | 57.84282 | 16.90740 | 41159 ft | 531 kts | 58° |
| 2026-05-07 18:46 | 57.88155 | 17.02560 | 41167 ft | 531 kts | 58° |
| 2026-05-07 18:46 | 57.92017 | 17.14407 | 41162 ft | 532 kts | 58° |
| 2026-05-07 18:47 | 57.95845 | 17.26208 | 41162 ft | 532 kts | 58° |
| 2026-05-07 18:47 | 57.99693 | 17.38128 | 41146 ft | 532 kts | 58° |
| 2026-05-07 18:48 | 58.03532 | 17.50082 | 41161 ft | 533 kts | 58° |
| 2026-05-07 18:48 | 58.07365 | 17.62080 | 41164 ft | 533 kts | 58° |
| 2026-05-07 18:49 | 58.11189 | 17.74110 | 41164 ft | 534 kts | 58° |
| 2026-05-07 18:49 | 58.15008 | 17.86185 | 41162 ft | 534 kts | 58° |
| 2026-05-07 18:50 | 58.18815 | 17.98283 | 41162 ft | 535 kts | 58° |
| 2026-05-07 18:50 | 58.22609 | 18.10429 | 41165 ft | 535 kts | 59° |
| 2026-05-07 18:51 | 58.26353 | 18.22536 | 41164 ft | 535 kts | 59° |
| 2026-05-07 18:51 | 58.30109 | 18.34751 | 41174 ft | 535 kts | 59° |
| 2026-05-07 18:52 | 58.33854 | 18.46977 | 41169 ft | 535 kts | 59° |
| 2026-05-07 18:52 | 58.37466 | 18.58824 | 41168 ft | 535 kts | 59° |
| 2026-05-07 18:53 | 58.40440 | 18.68626 | 41168 ft | 535 kts | 59° |
| 2026-05-07 18:53 | 58.44155 | 18.80927 | 41160 ft | 535 kts | 59° |
| 2026-05-07 18:54 | 58.47864 | 18.93275 | 41168 ft | 535 kts | 59° |
| 2026-05-07 18:54 | 58.51567 | 19.05669 | 41163 ft | 537 kts | 59° |
| 2026-05-07 18:55 | 58.55242 | 19.18032 | 41168 ft | 538 kts | 59° |
| 2026-05-07 18:55 | 58.58945 | 19.30556 | 41155 ft | 539 kts | 59° |
| 2026-05-07 18:56 | 58.62627 | 19.43082 | 41172 ft | 539 kts | 60° |
| 2026-05-07 18:56 | 58.65678 | 19.53509 | 41172 ft | 539 kts | 60° |
| 2026-05-07 18:57 | 58.69338 | 19.66085 | 41171 ft | 539 kts | 60° |
| 2026-05-07 18:57 | 58.72993 | 19.78706 | 41167 ft | 540 kts | 60° |
| 2026-05-07 18:58 | 58.76638 | 19.91366 | 41170 ft | 540 kts | 60° |
| 2026-05-07 18:58 | 58.82870 | 20.13171 | 41160 ft | 541 kts | 60° |
| 2026-05-07 18:59 | 58.90086 | 20.38685 | 41169 ft | 542 kts | 60° |
| 2026-05-07 18:59 | 58.96560 | 20.61817 | 41167 ft | 542 kts | 60° |
| 2026-05-07 19:00 | 58.99921 | 20.73918 | 41166 ft | 542 kts | 61° |
| 2026-05-07 19:00 | 59.03480 | 20.86805 | 41161 ft | 542 kts | 61° |
| 2026-05-07 19:01 | 59.07135 | 20.99673 | 41171 ft | 544 kts | 58° |
| 2026-05-07 19:01 | 59.11095 | 21.12073 | 41164 ft | 544 kts | 56° |
| 2026-05-07 19:02 | 59.15123 | 21.24573 | 41158 ft | 544 kts | 57° |
| 2026-05-07 19:02 | 59.19077 | 21.37132 | 41159 ft | 544 kts | 57° |
| 2026-05-07 19:03 | 59.23028 | 21.49784 | 41158 ft | 544 kts | 57° |
| 2026-05-07 19:03 | 59.26967 | 21.62426 | 41161 ft | 544 kts | 57° |
| 2026-05-07 19:04 | 59.30862 | 21.75017 | 41156 ft | 544 kts | 57° |
| 2026-05-07 19:04 | 59.34757 | 21.87681 | 41139 ft | 540 kts | 58° |
| 2026-05-07 19:04 | 59.36677 | 21.93956 | 40875 ft | 534 kts | 58° |
| 2026-05-07 19:05 | 59.38592 | 22.00225 | 40183 ft | 534 kts | 58° |
| 2026-05-07 19:05 | 59.40508 | 22.06514 | 39404 ft | 538 kts | 58° |
| 2026-05-07 19:05 | 59.42426 | 22.12830 | 38613 ft | 540 kts | 58° |
| 2026-05-07 19:05 | 59.44323 | 22.19092 | 37736 ft | 541 kts | 57° |
| 2026-05-07 19:06 | 59.46248 | 22.25468 | 36883 ft | 541 kts | 57° |
| 2026-05-07 19:06 | 59.50053 | 22.38120 | 35334 ft | 540 kts | 57° |
| 2026-05-07 19:06 | 59.51957 | 22.44475 | 34524 ft | 540 kts | 57° |
| 2026-05-07 19:07 | 59.53864 | 22.50856 | 33575 ft | 541 kts | 56° |
| 2026-05-07 19:07 | 59.55776 | 22.57272 | 32728 ft | 540 kts | 56° |
| 2026-05-07 19:07 | 59.57665 | 22.63634 | 32096 ft | 534 kts | 56° |
| 2026-05-07 19:07 | 59.59522 | 22.69906 | 31467 ft | 529 kts | 56° |
| 2026-05-07 19:08 | 59.61370 | 22.76157 | 30819 ft | 524 kts | 57° |
| 2026-05-07 19:08 | 59.63199 | 22.82365 | 30199 ft | 521 kts | 57° |
| 2026-05-07 19:08 | 59.65012 | 22.88535 | 29503 ft | 517 kts | 57° |
| 2026-05-07 19:08 | 59.66807 | 22.94660 | 28878 ft | 512 kts | 57° |
| 2026-05-07 19:09 | 59.68580 | 23.00725 | 28260 ft | 507 kts | 57° |
| 2026-05-07 19:09 | 59.70332 | 23.06735 | 27648 ft | 502 kts | 57° |
| 2026-05-07 19:09 | 59.72068 | 23.12704 | 27043 ft | 498 kts | 57° |
| 2026-05-07 19:09 | 59.73765 | 23.18554 | 26446 ft | 494 kts | 57° |
| 2026-05-07 19:10 | 59.75472 | 23.24456 | 25829 ft | 490 kts | 57° |
| 2026-05-07 19:10 | 59.77161 | 23.30308 | 25222 ft | 487 kts | 57° |
| 2026-05-07 19:10 | 59.78841 | 23.36144 | 24617 ft | 484 kts | 57° |
| 2026-05-07 19:10 | 59.80501 | 23.41926 | 23999 ft | 481 kts | 57° |
| 2026-05-07 19:11 | 59.82155 | 23.47701 | 23372 ft | 478 kts | 57° |
| 2026-05-07 19:11 | 59.83793 | 23.53435 | 22664 ft | 475 kts | 57° |
| 2026-05-07 19:11 | 59.85411 | 23.59114 | 22035 ft | 469 kts | 57° |
| 2026-05-07 19:11 | 59.87011 | 23.64743 | 21408 ft | 464 kts | 57° |
| 2026-05-07 19:12 | 59.88598 | 23.70342 | 20781 ft | 460 kts | 57° |
| 2026-05-07 19:12 | 59.90152 | 23.75833 | 20148 ft | 455 kts | 57° |
| 2026-05-07 19:12 | 59.91698 | 23.81311 | 19531 ft | 451 kts | 57° |
| 2026-05-07 19:12 | 59.93224 | 23.86729 | 18911 ft | 447 kts | 57° |
| 2026-05-07 19:13 | 59.94735 | 23.92110 | 18285 ft | 443 kts | 57° |
| 2026-05-07 19:13 | 59.96231 | 23.97450 | 17598 ft | 438 kts | 57° |
| 2026-05-07 19:13 | 59.97705 | 24.02724 | 17002 ft | 432 kts | 57° |
| 2026-05-07 19:13 | 59.99153 | 24.07917 | 16387 ft | 426 kts | 57° |
| 2026-05-07 19:14 | 60.00581 | 24.13051 | 15785 ft | 420 kts | 57° |
| 2026-05-07 19:14 | 60.01991 | 24.18128 | 15198 ft | 415 kts | 57° |
| 2026-05-07 19:14 | 60.03380 | 24.23142 | 14606 ft | 410 kts | 57° |
| 2026-05-07 19:14 | 60.04699 | 24.27913 | 14023 ft | 405 kts | 58° |
| 2026-05-07 19:15 | 60.06056 | 24.32832 | 13393 ft | 400 kts | 58° |
| 2026-05-07 19:15 | 60.07383 | 24.37653 | 12970 ft | 389 kts | 58° |
| 2026-05-07 19:15 | 60.08663 | 24.42322 | 12702 ft | 376 kts | 58° |
| 2026-05-07 19:15 | 60.09884 | 24.46783 | 12409 ft | 363 kts | 58° |
| 2026-05-07 19:16 | 60.11088 | 24.51182 | 11967 ft | 356 kts | 58° |
| 2026-05-07 19:16 | 60.12272 | 24.55512 | 11503 ft | 350 kts | 58° |
| 2026-05-07 19:16 | 60.13432 | 24.59764 | 11028 ft | 345 kts | 58° |
| 2026-05-07 19:16 | 60.14571 | 24.63949 | 10693 ft | 336 kts | 59° |
| 2026-05-07 19:17 | 60.15681 | 24.68038 | 10474 ft | 332 kts | 59° |
| 2026-05-07 19:17 | 60.16778 | 24.72085 | 10296 ft | 323 kts | 59° |
| 2026-05-07 19:17 | 60.17826 | 24.75962 | 10119 ft | 310 kts | 59° |
| 2026-05-07 19:17 | 60.18831 | 24.79685 | 9808 ft | 303 kts | 59° |
| 2026-05-07 19:18 | 60.19831 | 24.83390 | 9441 ft | 298 kts | 60° |
| 2026-05-07 19:18 | 60.20804 | 24.87005 | 9067 ft | 292 kts | 60° |
| 2026-05-07 19:18 | 60.21767 | 24.90587 | 8639 ft | 289 kts | 60° |
| 2026-05-07 19:18 | 60.22716 | 24.94119 | 8232 ft | 286 kts | 60° |
| 2026-05-07 19:19 | 60.23654 | 24.97619 | 7840 ft | 282 kts | 60° |
| 2026-05-07 19:19 | 60.24576 | 25.01065 | 7475 ft | 277 kts | 60° |
| 2026-05-07 19:19 | 60.25490 | 25.04440 | 7186 ft | 272 kts | 58° |
| 2026-05-07 19:19 | 60.26665 | 25.07372 | 6954 ft | 269 kts | 38° |
| 2026-05-07 19:20 | 60.28267 | 25.09089 | 6790 ft | 256 kts | 16° |
| 2026-05-07 19:20 | 60.29961 | 25.10004 | 6517 ft | 249 kts | 12° |
| 2026-05-07 19:20 | 60.31613 | 25.10797 | 6200 ft | 245 kts | 12° |
| 2026-05-07 19:20 | 60.33286 | 25.11608 | 5881 ft | 240 kts | 12° |
| 2026-05-07 19:21 | 60.34894 | 25.12142 | 5601 ft | 237 kts | 1° |
| 2026-05-07 19:21 | 60.36501 | 25.11637 | 5336 ft | 234 kts | 340° |
| 2026-05-07 19:21 | 60.37984 | 25.10287 | 5050 ft | 233 kts | 333° |
| 2026-05-07 19:21 | 60.39421 | 25.08793 | 4766 ft | 231 kts | 333° |
| 2026-05-07 19:22 | 60.40850 | 25.07303 | 4481 ft | 230 kts | 333° |
| 2026-05-07 19:22 | 60.42271 | 25.05829 | 4254 ft | 229 kts | 333° |
| 2026-05-07 19:22 | 60.43699 | 25.04356 | 4112 ft | 230 kts | 333° |
| 2026-05-07 19:22 | 60.45122 | 25.02897 | 3996 ft | 226 kts | 334° |
| 2026-05-07 19:23 | 60.46487 | 25.01480 | 3893 ft | 214 kts | 333° |
| 2026-05-07 19:23 | 60.47657 | 24.99740 | 3731 ft | 206 kts | 314° |
| 2026-05-07 19:23 | 60.48331 | 24.97224 | 3520 ft | 204 kts | 287° |
| 2026-05-07 19:23 | 60.48328 | 24.94391 | 3261 ft | 205 kts | 259° |
| 2026-05-07 19:24 | 60.47793 | 24.91775 | 3067 ft | 198 kts | 247° |
| 2026-05-07 19:24 | 60.47170 | 24.89366 | 2954 ft | 190 kts | 246° |
| 2026-05-07 19:24 | 60.46512 | 24.87037 | 2875 ft | 192 kts | 239° |
| 2026-05-07 19:24 | 60.45468 | 24.85360 | 2801 ft | 195 kts | 200° |
| 2026-05-07 19:25 | 60.44159 | 24.85288 | 2723 ft | 185 kts | 172° |
| 2026-05-07 19:25 | 60.42971 | 24.86035 | 2488 ft | 174 kts | 149° |
| 2026-05-07 19:25 | 60.41948 | 24.87269 | 2222 ft | 168 kts | 147° |
| 2026-05-07 19:25 | 60.40937 | 24.88367 | 1993 ft | 162 kts | 154° |
| 2026-05-07 19:26 | 60.39942 | 24.89333 | 1763 ft | 156 kts | 151° |
| 2026-05-07 19:26 | 60.38996 | 24.90324 | 1546 ft | 150 kts | 152° |
| 2026-05-07 19:26 | 60.38080 | 24.91269 | 1346 ft | 146 kts | 152° |
| 2026-05-07 19:26 | 60.37184 | 24.92188 | 1154 ft | 145 kts | 153° |
| 2026-05-07 19:27 | 60.36282 | 24.93115 | 944 ft | 142 kts | 153° |
| 2026-05-07 19:27 | 60.35413 | 24.94008 | 748 ft | 138 kts | 154° |
| 2026-05-07 19:27 | 60.34582 | 24.94878 | 571 ft | 135 kts | 155° |
| 2026-05-07 19:27 | 60.33737 | 24.95737 | 369 ft | 133 kts | 154° |
| 2026-05-07 19:28 | 60.32924 | 24.96563 | 214 ft | 133 kts | 155° |
| 2026-05-07 19:28 | 60.32149 | 24.97349 | 163 ft | 102 kts | 153° |
| 2026-05-07 19:28 | 60.31700 | 24.97810 | 160 ft | 42 kts | 153° |
| 2026-05-07 19:28 | 60.31583 | 24.97930 | 160 ft | 13 kts | 153° |
| 2026-05-07 19:29 | 60.31495 | 24.98010 | 161 ft | 14 kts | 169° |
| 2026-05-07 19:29 | 60.31429 | 24.97902 | 164 ft | 12 kts | 248° |
| 2026-05-07 19:29 | 60.31415 | 24.97808 | 167 ft | 4 kts | 282° |
| 2026-05-07 19:29 | 60.31435 | 24.97759 | 167 ft | 6 kts | 317° |
| 2026-05-07 19:30 | 60.31509 | 24.97671 | 168 ft | 15 kts | 333° |
| 2026-05-07 19:30 | 60.31610 | 24.97567 | 168 ft | 18 kts | 333° |
| 2026-05-07 19:30 | 60.31722 | 24.97451 | 167 ft | 12 kts | 333° |
| 2026-05-07 19:30 | 60.31806 | 24.97365 | 168 ft | 15 kts | 333° |
| 2026-05-07 19:31 | 60.31908 | 24.97261 | 168 ft | 18 kts | 333° |
| 2026-05-07 19:31 | 60.32028 | 24.97137 | 168 ft | 21 kts | 333° |
| 2026-05-07 19:31 | 60.32136 | 24.97024 | 168 ft | 17 kts | 333° |
| 2026-05-07 19:31 | 60.32238 | 24.96919 | 169 ft | 14 kts | 333° |
| 2026-05-07 19:32 | 60.32304 | 24.96836 | 171 ft | 7 kts | 303° |
| 2026-05-07 19:32 | 60.32290 | 24.96757 | 172 ft | 7 kts | 231° |
| 2026-05-07 19:32 | 60.32252 | 24.96670 | 173 ft | 9 kts | 228° |
| 2026-05-07 19:32 | 60.32203 | 24.96564 | 174 ft | 11 kts | 227° |
| 2026-05-07 19:33 | 60.32142 | 24.96426 | 174 ft | 15 kts | 227° |
| 2026-05-07 19:33 | 60.32065 | 24.96257 | 174 ft | 17 kts | 227° |
| 2026-05-07 19:33 | 60.31995 | 24.96106 | 176 ft | 13 kts | 228° |
| 2026-05-07 19:33 | 60.31924 | 24.95947 | 175 ft | 17 kts | 227° |
| 2026-05-07 19:34 | 60.31850 | 24.95784 | 175 ft | 15 kts | 227° |
| 2026-05-07 19:34 | 60.31779 | 24.95629 | 176 ft | 13 kts | 227° |
| 2026-05-07 19:34 | 60.31721 | 24.95524 | 175 ft | 6 kts | 191° |
| 2026-05-07 19:34 | 60.31672 | 24.95596 | 171 ft | 13 kts | 136° |
| 2026-05-07 19:35 | 60.31607 | 24.95669 | 170 ft | 6 kts | 197° |
| 2026-05-07 19:35 | 60.31568 | 24.95622 | 170 ft | 4 kts | 190° |
| 2026-05-07 19:35 | 60.31549 | 24.95632 | 170 ft | 3 kts | 154° |
| 2026-05-07 19:35 | 60.31529 | 24.95679 | 170 ft | 7 kts | 129° |
| 2026-05-07 19:36 | 60.31511 | 24.95713 | 170 ft | 0 kts | 137° |
| 2026-05-07 19:36 | 60.31510 | 24.95715 | 170 ft | 0 kts | 137° |